Wrightstown, Ohio
Current Conditions -  °F | °C
As of 7:50 PM on Monday 26 Jan 2015 (Local Time) from KUNI Reporting Station
Overcast Overcast  
Wind Chill: 13°   Ceiling: 1200
Heat Index: 20°   Visibility: 10mi
Dew Point: 15°   Wind: 6mph
Humidity: 81%   Direction: 280°W
Pressure: 29.94"   Gusts: NA
Location:  39.5152°N, 82.0676°W
Report Text: KUNI 270050Z AUTO 28005KT 10SM OVC012 M06/M09 A2994 RMK AO2 T10641092
Loading
Personal Weather Stations






























Interactive Weather Map New forecast layout! Learn more

10-Day Weather Forecast

Advertisements
Track Severe Weather on mobile